createdAt,value
2019-05-02T00:01:40.146Z,34.70
2019-05-02T00:04:21.289Z,33.67
2019-05-02T00:07:08.993Z,31.50
2019-05-02T00:09:50.441Z,33.30
2019-05-02T00:12:30.732Z,27.40
2019-05-02T00:15:12.921Z,26.10
2019-05-02T00:17:52.558Z,25.37
2019-05-02T00:20:32.724Z,24.27
2019-05-02T00:23:13.623Z,51.37
2019-05-02T00:25:54.517Z,78.97
2019-05-02T00:28:34.622Z,43.47
2019-05-02T00:31:17.412Z,78.40
2019-05-02T00:33:57.673Z,51.20
2019-05-02T00:36:37.139Z,56.13
2019-05-02T00:39:17.555Z,172.80
2019-05-02T00:41:57.311Z,40.97
2019-05-02T00:44:37.605Z,25.53
2019-05-02T00:50:40.451Z,98.63
2019-05-02T00:53:19.858Z,74.73
2019-05-02T00:56:00.305Z,49.43
2019-05-02T00:58:40.381Z,39.87
2019-05-02T01:01:46.209Z,26.40
2019-05-02T01:04:32.517Z,27.43
2019-05-02T01:07:13.377Z,26.80
2019-05-02T01:09:53.386Z,87.07
2019-05-02T01:12:33.293Z,39.30
2019-05-02T01:15:13.373Z,88.17
2019-05-02T01:17:53.885Z,36.97
2019-05-02T01:20:34.890Z,35.83
2019-05-02T01:23:14.906Z,30.77
2019-05-02T01:25:54.977Z,26.53
2019-05-02T01:28:55.684Z,27.47
2019-05-02T01:38:17.178Z,63.30
2019-05-02T01:40:59.127Z,57.20
2019-05-02T01:43:39.553Z,72.53
2019-05-02T01:46:22.260Z,278.43
2019-05-02T01:49:02.368Z,63.87
2019-05-02T01:51:47.338Z,23.70
2019-05-02T01:54:24.637Z,21.43
2019-05-02T01:57:08.808Z,21.97
2019-05-02T01:59:46.700Z,21.10
2019-05-02T02:02:28.067Z,18.90
2019-05-02T02:05:09.277Z,19.60
2019-05-02T02:07:50.796Z,23.93
2019-05-02T02:10:31.306Z,21.87
2019-05-02T02:13:11.578Z,61.23
2019-05-02T02:15:51.625Z,225.53
2019-05-02T02:18:35.260Z,70.43
2019-05-02T02:24:26.430Z,72.23
2019-05-02T02:27:27.685Z,31.20
2019-05-02T02:30:07.668Z,20.23
2019-05-02T02:32:47.646Z,22.77
2019-05-02T02:35:28.019Z,18.70
2019-05-02T02:38:08.239Z,22.97
2019-05-02T02:40:48.449Z,25.40
2019-05-02T02:43:34.055Z,23.60
2019-05-02T02:46:17.627Z,57.93
2019-05-02T02:48:57.716Z,97.30
2019-05-02T02:51:37.632Z,50.47
2019-05-02T02:54:17.956Z,43.00
2019-05-02T02:56:58.371Z,22.77
2019-05-02T02:59:38.394Z,20.10
2019-05-02T03:02:18.190Z,27.10
2019-05-02T03:04:58.308Z,26.90
2019-05-02T03:07:38.609Z,43.60
2019-05-02T03:10:19.678Z,47.53
2019-05-02T03:13:21.922Z,50.40
2019-05-02T03:16:07.094Z,38.57
2019-05-02T03:18:44.886Z,28.90
2019-05-02T03:21:25.055Z,20.87
2019-05-02T03:24:05.827Z,16.43
2019-05-02T03:26:48.768Z,21.60
2019-05-02T03:29:39.696Z,34.20
2019-05-02T03:32:22.128Z,31.63
2019-05-02T03:34:53.924Z,39.48
2019-05-02T03:37:34.911Z,40.10
2019-05-02T03:40:15.679Z,56.20
2019-05-02T03:42:55.762Z,48.50
2019-05-02T03:45:40.186Z,41.70
2019-05-02T03:48:24.958Z,32.13
2019-05-02T03:50:59.963Z,31.75
2019-05-02T03:53:40.237Z,21.33
2019-05-02T03:56:20.128Z,22.93
2019-05-02T03:59:00.395Z,29.48
2019-05-02T04:01:41.851Z,44.90
2019-05-02T04:04:23.606Z,39.92
2019-05-02T04:07:03.760Z,32.88
2019-05-02T04:09:44.077Z,30.12
2019-05-02T04:12:24.275Z,27.75
2019-05-02T04:15:04.186Z,32.90
2019-05-02T04:17:44.418Z,29.20
2019-05-02T04:20:25.718Z,24.87
2019-05-02T04:23:05.746Z,24.33
2019-05-02T04:25:45.803Z,26.13
2019-05-02T04:28:26.128Z,19.87
2019-05-02T04:31:06.667Z,21.75
2019-05-02T04:33:46.334Z,23.30
2019-05-02T04:36:26.949Z,18.63
2019-05-02T04:39:15.125Z,21.33
2019-05-02T04:41:49.491Z,23.67
2019-05-02T04:44:43.592Z,24.50
2019-05-02T04:47:21.921Z,18.50
2019-05-02T04:50:00.117Z,25.90
2019-05-02T04:52:50.008Z,18.93
2019-05-02T04:55:30.285Z,20.20
2019-05-02T04:58:08.329Z,20.30
2019-05-02T05:00:59.259Z,19.87
2019-05-02T05:03:38.360Z,19.20
2019-05-02T05:06:21.835Z,21.50
2019-05-02T05:09:12.695Z,24.63
2019-05-02T05:11:48.214Z,19.60
2019-05-02T05:14:31.361Z,20.47
2019-05-02T05:17:10.825Z,16.73
2019-05-02T05:19:50.902Z,19.47
2019-05-02T05:22:31.265Z,26.43
2019-05-02T05:25:21.193Z,23.20
2019-05-02T05:28:05.631Z,19.50
2019-05-02T05:30:45.076Z,19.47
2019-05-02T05:33:24.489Z,25.90
2019-05-02T05:36:04.190Z,27.53
2019-05-02T05:38:44.265Z,22.07
2019-05-02T05:41:24.538Z,24.73
2019-05-02T05:44:04.431Z,30.13
2019-05-02T05:46:46.981Z,25.77
2019-05-02T05:49:28.302Z,32.20
2019-05-02T05:52:00.665Z,32.43
2019-05-02T05:54:47.071Z,27.50
2019-05-02T05:57:34.418Z,27.97
2019-05-02T06:00:18.672Z,30.13
2019-05-02T06:03:09.117Z,33.90
2019-05-02T06:05:41.158Z,35.73
2019-05-02T06:08:20.977Z,34.93
2019-05-02T06:11:02.082Z,31.37
2019-05-02T06:13:42.881Z,31.10
2019-05-02T06:16:26.767Z,33.63
2019-05-02T06:19:07.302Z,33.70
2019-05-02T06:21:48.324Z,36.53
2019-05-02T06:24:28.429Z,40.97
2019-05-02T06:27:07.927Z,44.47
2019-05-02T06:29:51.198Z,35.23
2019-05-02T06:32:30.300Z,39.70
2019-05-02T06:35:10.591Z,42.00
2019-05-02T06:37:52.027Z,53.10
2019-05-02T06:40:33.927Z,51.37
2019-05-02T06:43:14.605Z,48.20
2019-05-02T06:45:55.145Z,51.73
2019-05-02T06:48:35.196Z,58.53
2019-05-02T06:51:19.531Z,61.20
2019-05-02T06:53:57.809Z,60.90
2019-05-02T06:56:38.467Z,58.87
2019-05-02T06:59:20.284Z,56.30
2019-05-02T07:02:00.743Z,66.60
2019-05-02T07:04:40.694Z,59.93
2019-05-02T07:07:25.106Z,61.33
2019-05-02T07:09:50.137Z,59.47
2019-05-02T07:12:36.850Z,65.60
2019-05-02T07:18:55.281Z,64.93
2019-05-02T07:21:34.920Z,61.63
2019-05-02T07:24:15.334Z,63.97
2019-05-02T07:26:56.944Z,61.33
2019-05-02T07:29:37.909Z,70.67
2019-05-02T07:32:22.806Z,63.33
2019-05-02T07:34:59.477Z,64.37
2019-05-02T07:37:39.274Z,67.73
2019-05-02T07:40:19.284Z,68.13
2019-05-02T07:42:59.597Z,73.40
2019-05-02T07:45:40.337Z,65.47
2019-05-02T07:48:21.633Z,71.57
2019-05-02T07:51:01.673Z,73.87
2019-05-02T07:53:44.535Z,61.33
2019-05-02T07:56:23.845Z,68.03
2019-05-02T07:59:03.563Z,70.40
2019-05-02T08:01:45.049Z,66.20
2019-05-02T08:04:26.795Z,62.70
2019-05-02T08:07:07.257Z,65.13
2019-05-02T08:09:47.477Z,73.90
2019-05-02T08:12:27.373Z,74.47
2019-05-02T08:15:13.167Z,74.33
2019-05-02T08:17:53.745Z,74.03
2019-05-02T08:20:31.443Z,79.00
2019-05-02T08:23:13.594Z,79.67
2019-05-02T08:25:53.834Z,78.80
2019-05-02T08:28:39.957Z,72.07
2019-05-02T08:31:20.991Z,71.97
2019-05-02T08:34:05.752Z,67.70
2019-05-02T08:36:43.585Z,71.57
2019-05-02T08:39:25.915Z,70.80
2019-05-02T08:42:05.841Z,74.00
2019-05-02T08:44:51.076Z,69.37
2019-05-02T08:47:28.760Z,70.70
2019-05-02T08:50:09.767Z,79.50
2019-05-02T08:52:49.869Z,69.10
2019-05-02T08:55:31.041Z,78.13
2019-05-02T08:58:14.778Z,77.60
2019-05-02T09:00:52.915Z,78.40
2019-05-02T09:03:38.885Z,83.50
2019-05-02T09:06:17.170Z,70.77
2019-05-02T09:08:57.206Z,81.83
2019-05-02T09:11:37.421Z,79.80
2019-05-02T09:14:17.546Z,90.87
2019-05-02T09:17:00.365Z,84.03
2019-05-02T09:19:39.805Z,79.17
2019-05-02T09:22:22.074Z,84.50
2019-05-02T09:25:02.397Z,85.70
2019-05-02T09:27:43.302Z,74.47
2019-05-02T09:30:25.808Z,84.67
2019-05-02T09:33:06.750Z,81.33
2019-05-02T09:35:47.622Z,90.57
2019-05-02T09:38:27.470Z,88.17
2019-05-02T09:41:16.914Z,86.03
2019-05-02T09:43:38.961Z,83.50
2019-05-02T09:46:32.913Z,91.47
2019-05-02T09:49:16.386Z,83.03
2019-05-02T09:51:59.166Z,75.80
2019-05-02T09:54:41.439Z,78.50
2019-05-02T09:57:18.849Z,81.87
2019-05-02T09:59:58.776Z,75.77
2019-05-02T10:02:39.374Z,92.30
2019-05-02T10:05:19.521Z,78.70
2019-05-02T10:08:02.953Z,83.83
2019-05-02T10:10:45.804Z,84.53
2019-05-02T10:13:24.750Z,79.43
2019-05-02T10:16:04.617Z,65.93
2019-05-02T10:18:44.901Z,77.43
2019-05-02T10:21:26.349Z,72.23
2019-05-02T10:24:06.507Z,71.03
2019-05-02T10:26:46.350Z,71.63
2019-05-02T10:29:28.450Z,65.50
2019-05-02T10:32:15.034Z,80.67
2019-05-02T10:34:55.231Z,76.50
2019-05-02T10:37:38.335Z,74.87
2019-05-02T10:40:17.094Z,68.07
2019-05-02T10:42:56.623Z,71.43
2019-05-02T10:45:38.088Z,67.53
2019-05-02T10:48:25.909Z,61.43
2019-05-02T10:51:19.669Z,61.23
2019-05-02T10:54:00.004Z,59.63
2019-05-02T10:56:42.249Z,59.47
2019-05-02T10:59:22.882Z,60.57
2019-05-02T11:02:25.059Z,54.70
2019-05-02T11:05:11.959Z,53.67
2019-05-02T11:08:06.196Z,55.67
2019-05-02T11:10:46.199Z,54.50
2019-05-02T11:16:56.721Z,55.80
2019-05-02T11:20:09.013Z,55.50
2019-05-02T11:22:52.069Z,54.20
2019-05-02T11:25:32.015Z,62.23
2019-05-02T11:28:12.454Z,61.47
2019-05-02T11:30:52.753Z,52.30
2019-05-02T11:33:35.004Z,52.03
2019-05-02T11:36:14.746Z,58.20
2019-05-02T11:39:03.546Z,47.23
2019-05-02T11:41:37.061Z,53.13
2019-05-02T11:44:17.166Z,52.57
2019-05-02T11:46:56.741Z,49.63
2019-05-02T11:49:36.961Z,49.30
2019-05-02T11:52:18.065Z,57.90
2019-05-02T11:54:58.982Z,51.73
2019-05-02T11:57:38.627Z,49.43
2019-05-02T12:00:18.834Z,49.37
2019-05-02T12:03:18.396Z,57.60
2019-05-02T12:05:58.979Z,55.13
2019-05-02T12:08:39.474Z,54.30
2019-05-02T12:11:22.614Z,55.63
2019-05-02T12:14:03.025Z,57.77
2019-05-02T12:16:43.406Z,57.47
2019-05-02T12:19:23.223Z,61.53
2019-05-02T12:22:07.123Z,55.10
2019-05-02T12:24:47.815Z,61.50
2019-05-02T12:27:27.567Z,52.73
2019-05-02T12:30:07.571Z,54.13
2019-05-02T12:32:48.025Z,52.70
2019-05-02T12:35:28.028Z,51.17
2019-05-02T12:38:08.578Z,47.77
2019-05-02T12:40:48.580Z,53.90
2019-05-02T12:43:28.856Z,49.60
2019-05-02T12:46:08.792Z,54.67
2019-05-02T12:48:49.234Z,53.10
2019-05-02T12:51:28.994Z,55.90
2019-05-02T12:54:09.329Z,52.30
2019-05-02T12:56:50.067Z,47.60
2019-05-02T12:59:32.094Z,55.57
2019-05-02T13:02:19.289Z,45.63
2019-05-02T13:04:59.455Z,44.40
2019-05-02T13:07:42.879Z,43.23
2019-05-02T13:13:39.520Z,47.90
2019-05-02T13:16:22.556Z,46.33
2019-05-02T13:19:06.017Z,42.27
2019-05-02T13:25:04.344Z,42.60
2019-05-02T13:27:48.120Z,37.70
2019-05-02T13:37:02.811Z,38.90
2019-05-02T13:42:58.428Z,40.70
2019-05-02T13:46:02.239Z,41.07
2019-05-02T13:49:02.947Z,34.07
2019-05-02T13:51:43.434Z,36.33
2019-05-02T13:54:23.431Z,32.57
2019-05-02T13:57:03.331Z,30.83
2019-05-02T13:59:43.355Z,30.10
2019-05-02T14:02:23.577Z,32.60
2019-05-02T14:05:03.237Z,34.03
2019-05-02T14:07:48.343Z,31.53
2019-05-02T14:10:39.501Z,32.17
2019-05-02T14:13:14.523Z,41.30
2019-05-02T14:15:55.073Z,28.30
2019-05-02T14:18:35.085Z,39.70
2019-05-02T14:21:14.785Z,29.93
2019-05-02T14:23:55.077Z,34.50
2019-05-02T14:26:34.981Z,30.60
2019-05-02T14:29:16.324Z,31.23
2019-05-02T14:31:56.221Z,25.17
2019-05-02T14:34:55.814Z,27.53
2019-05-02T14:37:35.799Z,23.37
2019-05-02T14:43:46.197Z,21.17
2019-05-02T14:46:28.806Z,26.80
2019-05-02T14:49:08.726Z,23.20
2019-05-02T14:51:49.161Z,29.03
2019-05-02T14:54:28.856Z,23.83
2019-05-02T14:57:17.286Z,21.30
2019-05-02T14:59:59.342Z,26.83
2019-05-02T15:02:45.005Z,27.00
2019-05-02T15:05:45.507Z,16.70
2019-05-02T15:08:25.916Z,18.07
2019-05-02T15:11:05.877Z,20.90
2019-05-02T15:13:46.215Z,18.40
2019-05-02T15:16:39.369Z,22.13
2019-05-02T15:19:07.874Z,21.00
2019-05-02T15:21:54.375Z,19.00
2019-05-02T15:24:33.358Z,24.70
2019-05-02T15:27:16.645Z,24.83
2019-05-02T15:30:00.810Z,21.47
2019-05-02T15:32:54.722Z,22.50
2019-05-02T15:35:57.252Z,21.37
2019-05-02T15:38:37.105Z,28.33
2019-05-02T15:41:18.542Z,21.93
2019-05-02T15:43:59.330Z,29.10
2019-05-02T15:46:40.250Z,21.27
2019-05-02T15:49:20.015Z,26.63
2019-05-02T15:52:00.335Z,19.40
2019-05-02T15:54:42.521Z,24.67
2019-05-02T15:57:24.817Z,19.20
2019-05-02T16:00:05.198Z,19.80
2019-05-02T16:02:46.322Z,19.23
2019-05-02T16:05:26.553Z,22.87
2019-05-02T16:08:08.833Z,24.07
2019-05-02T16:10:48.817Z,28.13
2019-05-02T16:13:29.279Z,23.90
2019-05-02T16:16:09.538Z,18.83
2019-05-02T16:18:49.574Z,27.77
2019-05-02T16:21:35.667Z,22.07
2019-05-02T16:24:19.161Z,25.70
2019-05-02T16:27:01.500Z,31.20
2019-05-02T16:29:42.137Z,28.57
2019-05-02T16:35:33.929Z,27.90
2019-05-02T16:38:14.414Z,30.17
2019-05-02T16:40:54.885Z,28.20
2019-05-02T16:43:35.122Z,27.63
2019-05-02T16:46:15.418Z,27.23
2019-05-02T16:48:43.643Z,26.20
2019-05-02T16:51:34.410Z,26.50
2019-05-02T16:54:34.613Z,22.70
2019-05-02T16:57:17.521Z,25.00
2019-05-02T17:00:01.231Z,25.83
2019-05-02T17:02:43.595Z,19.40
2019-05-02T17:05:22.621Z,28.70
2019-05-02T17:11:34.199Z,23.87
2019-05-02T17:14:18.953Z,26.07
2019-05-02T17:16:59.363Z,22.43
2019-05-02T17:19:39.329Z,21.20
2019-05-02T17:22:21.931Z,22.33
2019-05-02T17:25:02.371Z,24.50
2019-05-02T17:27:44.645Z,25.93
2019-05-02T17:30:24.801Z,24.33
2019-05-02T17:32:52.287Z,23.93
2019-05-02T17:35:43.357Z,20.57
2019-05-02T17:38:29.313Z,22.00
2019-05-02T17:41:08.988Z,23.43
2019-05-02T17:43:49.352Z,24.43
2019-05-02T17:46:28.975Z,22.23
2019-05-02T17:49:09.291Z,27.90
2019-05-02T17:52:19.133Z,19.80
2019-05-02T17:55:14.019Z,22.23
2019-05-02T17:57:54.302Z,22.27
2019-05-02T18:00:37.969Z,25.77
2019-05-02T18:03:18.086Z,21.70
2019-05-02T18:05:58.307Z,25.77
2019-05-02T18:08:38.944Z,27.90
2019-05-02T18:11:19.643Z,26.13
2019-05-02T18:13:59.316Z,30.70
2019-05-02T18:16:39.445Z,28.33
2019-05-02T18:19:21.838Z,27.30
2019-05-02T18:21:48.826Z,27.07
2019-05-02T18:24:37.433Z,27.33
2019-05-02T18:27:38.332Z,25.93
2019-05-02T18:30:22.864Z,31.17
2019-05-02T18:33:03.496Z,30.70
2019-05-02T18:35:46.903Z,25.90
2019-05-02T18:38:25.737Z,25.70
2019-05-02T18:41:07.840Z,29.80
2019-05-02T18:43:48.492Z,26.50
2019-05-02T18:46:28.501Z,25.47
2019-05-02T18:49:08.302Z,30.93
2019-05-02T18:51:53.781Z,29.17
2019-05-02T18:54:30.426Z,28.90
2019-05-02T18:57:11.923Z,32.53
2019-05-02T18:59:52.056Z,27.90
2019-05-02T19:02:35.668Z,28.17
2019-05-02T19:05:05.927Z,27.00
2019-05-02T19:07:56.224Z,28.00
2019-05-02T19:10:37.068Z,29.97
2019-05-02T19:13:22.115Z,29.87
2019-05-02T19:16:02.437Z,27.13
2019-05-02T19:18:42.635Z,29.30
2019-05-02T19:21:26.343Z,30.93
2019-05-02T19:23:51.804Z,32.20
2019-05-02T19:26:41.586Z,31.57
2019-05-02T19:29:27.793Z,30.93
2019-05-02T19:32:12.224Z,30.70
2019-05-02T19:34:53.187Z,25.80
2019-05-02T19:37:36.275Z,35.90
2019-05-02T19:40:20.134Z,37.80
2019-05-02T19:43:03.347Z,35.83
2019-05-02T19:45:40.350Z,33.77
2019-05-02T19:48:22.541Z,33.43
2019-05-02T19:51:03.035Z,35.37
2019-05-02T19:53:42.745Z,42.23
2019-05-02T19:56:22.813Z,31.63
2019-05-02T19:59:02.923Z,35.13
2019-05-02T20:01:42.978Z,30.60
2019-05-02T20:04:24.866Z,38.17
2019-05-02T20:07:05.434Z,30.50
2019-05-02T20:09:48.287Z,31.80
2019-05-02T20:12:29.198Z,39.30
2019-05-02T20:15:09.335Z,34.63
2019-05-02T20:17:55.286Z,39.57
2019-05-02T20:20:35.853Z,37.33
2019-05-02T20:23:18.756Z,36.80
2019-05-02T20:25:58.225Z,34.57
2019-05-02T20:28:39.088Z,35.53
2019-05-02T20:31:18.759Z,36.90
2019-05-02T20:33:58.861Z,32.97
2019-05-02T20:36:39.434Z,33.83
2019-05-02T20:39:19.297Z,34.37
2019-05-02T20:41:59.142Z,35.00
2019-05-02T20:44:39.366Z,38.07
2019-05-02T20:47:21.883Z,36.13
2019-05-02T20:50:02.658Z,34.80
2019-05-02T20:52:44.125Z,35.50
2019-05-02T20:55:24.242Z,34.10
2019-05-02T20:58:04.281Z,32.27
2019-05-02T21:00:44.162Z,30.30
2019-05-02T21:03:25.447Z,29.50
2019-05-02T21:06:12.328Z,31.87
2019-05-02T21:09:33.402Z,27.53
2019-05-02T21:12:13.805Z,26.97
2019-05-02T21:14:53.934Z,22.07
2019-05-02T21:17:34.429Z,26.17
2019-05-02T21:20:17.562Z,24.37
2019-05-02T21:22:58.286Z,23.80
2019-05-02T21:25:38.506Z,25.43
2019-05-02T21:28:18.662Z,24.27
2019-05-02T21:31:00.614Z,21.53
2019-05-02T21:33:42.491Z,27.80
2019-05-02T21:36:23.183Z,22.40
2019-05-02T21:39:04.602Z,21.63
2019-05-02T21:41:47.281Z,23.80
2019-05-02T21:44:27.890Z,21.83
2019-05-02T21:47:08.321Z,22.13
2019-05-02T21:53:36.142Z,21.73
2019-05-02T21:56:21.830Z,23.33
2019-05-02T21:59:04.650Z,20.60
2019-05-02T22:01:49.280Z,22.27
2019-05-02T22:04:29.037Z,26.90
2019-05-02T22:07:09.226Z,25.00
2019-05-02T22:09:49.074Z,22.10
2019-05-02T22:12:29.329Z,22.97
2019-05-02T22:15:12.777Z,22.57
2019-05-02T22:17:52.687Z,27.23
2019-05-02T22:20:32.674Z,27.57
2019-05-02T22:23:12.949Z,28.23
2019-05-02T22:25:53.191Z,26.93
2019-05-02T22:28:33.533Z,27.63
2019-05-02T22:31:13.820Z,27.77
2019-05-02T22:33:53.330Z,35.67
2019-05-02T22:36:33.423Z,30.53
2019-05-02T22:39:33.405Z,31.90
2019-05-02T22:42:13.690Z,33.03
2019-05-02T22:44:53.313Z,35.07
2019-05-02T22:47:33.675Z,33.20
2019-05-02T22:50:14.170Z,34.40
2019-05-02T22:52:54.586Z,36.93
2019-05-02T22:55:34.477Z,35.27
2019-05-02T22:58:14.768Z,35.20
2019-05-02T23:00:54.660Z,39.03
2019-05-02T23:03:34.741Z,35.30
2019-05-02T23:06:15.761Z,34.53
2019-05-02T23:08:55.638Z,33.07
2019-05-02T23:11:38.070Z,46.17
2019-05-02T23:14:18.177Z,44.00
2019-05-02T23:16:58.120Z,36.47
2019-05-02T23:19:42.344Z,39.13
2019-05-02T23:22:22.567Z,44.13
2019-05-02T23:25:22.642Z,38.10
2019-05-02T23:28:07.321Z,35.50
2019-05-02T23:30:47.752Z,31.77
2019-05-02T23:33:47.605Z,32.90
2019-05-02T23:36:28.513Z,39.43
2019-05-02T23:39:08.357Z,37.03
2019-05-02T23:41:49.931Z,44.87
2019-05-02T23:44:30.909Z,39.67
2019-05-02T23:47:11.759Z,44.60
2019-05-02T23:49:52.332Z,45.30
2019-05-02T23:52:32.091Z,46.50
2019-05-02T23:55:12.909Z,47.57
2019-05-02T23:57:52.736Z,50.00
